Time;durP1;ratioP1;P1;durP2;ratioP2;P2;SDS_P1;SDS_P2;PMS_P1;PMS_P2;Temp;Humidity;BMP_temperature;BMP_pressure;BME280_temperature;BME280_humidity;BME280_pressure;Samples;Min_cycle;Max_cycle;Signal;HPM_P1;HPM_P2
2022/11/22 00:00:35;;;;;;;16.63;1.73;;;16.00;99.90;;;;;;5070878;28;20120;-78
2022/11/22 00:03:01;;;;;;;13.67;2.03;;;16.10;99.90;;;;;;5071019;28;20067;-80
2022/11/22 00:05:27;;;;;;;18.13;2.05;;;16.10;99.90;;;;;;5070863;28;20052;-79
2022/11/22 00:07:53;;;;;;;16.00;1.50;;;16.10;99.90;;;;;;5071324;28;20036;-79
2022/11/22 00:10:19;;;;;;;19.00;1.97;;;16.10;99.90;;;;;;5071077;28;20408;-80
2022/11/22 00:12:46;;;;;;;17.95;2.05;;;16.20;99.90;;;;;;5085723;28;20598;-78
2022/11/22 00:15:12;;;;;;;17.48;1.70;;;16.20;99.90;;;;;;5095572;28;20077;-79
2022/11/22 00:17:38;;;;;;;17.25;1.95;;;16.20;99.90;;;;;;5091121;28;20051;-79
2022/11/22 00:20:07;;;;;;;17.30;2.08;;;16.20;99.90;;;;;;5108518;28;20032;-78
2022/11/22 00:22:33;;;;;;;20.88;2.03;;;16.10;99.90;;;;;;5111933;28;20027;-80
2022/11/22 00:24:59;;;;;;;15.85;1.70;;;16.10;99.90;;;;;;5111595;28;20020;-79
2022/11/22 00:27:25;;;;;;;17.85;2.28;;;16.10;99.90;;;;;;5097670;28;20402;-80
2022/11/22 00:29:51;;;;;;;17.85;2.05;;;16.00;99.90;;;;;;5090956;28;20028;-79
2022/11/22 00:32:17;;;;;;;26.33;2.13;;;16.00;99.90;;;;;;5091256;28;20432;-79
2022/11/22 00:34:43;;;;;;;14.57;1.73;;;16.00;99.90;;;;;;5091291;28;20024;-79
2022/11/22 00:37:09;;;;;;;23.37;1.93;;;16.00;99.90;;;;;;5104566;28;20249;-79
2022/11/22 00:39:36;;;;;;;11.63;2.05;;;16.00;99.90;;;;;;5115411;28;20119;-79
2022/11/22 00:42:02;;;;;;;14.45;2.15;;;16.00;99.90;;;;;;5115792;28;20084;-80
2022/11/22 00:44:28;;;;;;;14.57;1.92;;;16.00;99.90;;;;;;5115487;28;20201;-80
2022/11/22 00:46:54;;;;;;;14.63;1.83;;;16.10;99.90;;;;;;5115433;28;20030;-80
2022/11/22 00:49:20;;;;;;;18.00;2.07;;;16.10;99.90;;;;;;5115439;28;20019;-79
2022/11/22 00:51:46;;;;;;;12.73;1.38;;;16.10;99.90;;;;;;5115765;28;20253;-80
2022/11/22 00:54:12;;;;;;;16.07;1.70;;;16.10;99.90;;;;;;5115159;28;20049;-79
2022/11/22 00:56:39;;;;;;;9.50;1.38;;;16.10;99.90;;;;;;5115529;28;20456;-79
2022/11/22 00:59:05;;;;;;;8.07;1.40;;;16.10;99.90;;;;;;5107584;28;20039;-79
2022/11/22 01:01:31;;;;;;;9.38;1.60;;;16.10;99.90;;;;;;5076535;28;20028;-79
2022/11/22 01:03:57;;;;;;;11.57;1.67;;;16.20;99.90;;;;;;5094478;28;20451;-80
2022/11/22 01:06:23;;;;;;;14.00;1.70;;;16.20;99.90;;;;;;5104826;28;20107;-79
2022/11/22 01:08:49;;;;;;;11.00;1.77;;;16.20;99.90;;;;;;5114983;28;20399;-78
2022/11/22 01:11:17;;;;;;;17.00;2.05;;;16.30;99.90;;;;;;5114761;28;20027;-79
2022/11/22 01:13:44;;;;;;;14.25;2.60;;;16.20;99.90;;;;;;5114820;28;20028;-79
2022/11/22 01:16:17;;;;;;;14.60;2.08;;;16.10;99.90;;;;;;5115003;28;20051;-79
2022/11/22 01:18:44;;;;;;;11.02;1.52;;;16.20;99.90;;;;;;5096048;28;20036;-79
2022/11/22 01:21:11;;;;;;;8.80;1.38;;;16.20;99.90;;;;;;5114917;28;20030;-79
2022/11/22 01:23:37;;;;;;;11.63;1.80;;;16.10;99.90;;;;;;5114806;28;20119;-79
2022/11/22 01:26:07;;;;;;;14.15;1.40;;;16.10;99.90;;;;;;5114820;28;20132;-79
2022/11/22 01:28:33;;;;;;;13.05;1.48;;;16.10;99.90;;;;;;5114837;28;20081;-79
2022/11/22 01:30:59;;;;;;;13.60;1.92;;;16.10;99.90;;;;;;5114522;28;20024;-80
2022/11/22 01:33:27;;;;;;;11.80;1.53;;;16.00;99.90;;;;;;5114596;28;20366;-80
2022/11/22 01:35:53;;;;;;;13.38;1.60;;;16.00;99.90;;;;;;5114680;28;20393;-79
2022/11/22 01:38:19;;;;;;;13.55;1.50;;;16.00;99.90;;;;;;5114465;28;20028;-79
2022/11/22 01:40:45;;;;;;;13.50;1.45;;;16.00;99.90;;;;;;5114554;28;20119;-80
2022/11/22 01:43:17;;;;;;;10.13;1.40;;;15.90;99.90;;;;;;5114186;28;20489;-78
2022/11/22 01:45:47;;;;;;;14.48;1.92;;;15.90;99.90;;;;;;5114502;28;20066;-79
2022/11/22 01:48:37;;;;;;;10.48;1.38;;;15.90;99.90;;;;;;5113617;28;20038;-79
2022/11/22 01:51:14;;;;;;;12.45;1.75;;;15.90;99.90;;;;;;5114569;28;20035;-79
2022/11/22 01:53:41;;;;;;;18.23;1.58;;;15.90;99.90;;;;;;5115177;28;20027;-80
2022/11/22 01:56:11;;;;;;;13.40;1.83;;;15.80;99.90;;;;;;5114100;28;20081;-80
2022/11/22 01:58:40;;;;;;;17.38;1.80;;;15.80;99.90;;;;;;5114244;28;20023;-79
2022/11/22 02:01:07;;;;;;;19.05;2.13;;;15.80;99.90;;;;;;5113918;28;20032;-79
2022/11/22 02:03:35;;;;;;;14.75;1.50;;;15.80;99.90;;;;;;5114196;28;20031;-79
2022/11/22 02:06:02;;;;;;;13.80;1.48;;;15.80;99.90;;;;;;5114474;28;20126;-79
2022/11/22 02:09:10;;;;;;;15.15;1.70;;;15.70;99.90;;;;;;5114697;28;20035;-79
2022/11/22 02:11:41;;;;;;;10.27;1.30;;;15.70;99.90;;;;;;5100866;28;20437;-80
2022/11/22 02:14:08;;;;;;;14.48;1.52;;;15.80;99.90;;;;;;5113880;28;20031;-80
2022/11/22 02:16:36;;;;;;;13.93;1.55;;;15.80;99.90;;;;;;5101842;28;20055;-78
2022/11/22 02:19:03;;;;;;;11.02;1.50;;;15.70;99.90;;;;;;5093365;28;20034;-79
2022/11/22 02:21:29;;;;;;;10.82;1.50;;;15.70;99.90;;;;;;5093621;28;20024;-78
2022/11/22 02:24:20;;;;;;;16.73;1.77;;;15.80;99.90;;;;;;5093170;28;20028;-79
2022/11/22 02:26:46;;;;;;;16.85;1.83;;;15.80;99.90;;;;;;5093368;28;20350;-80
2022/11/22 02:29:13;;;;;;;13.48;1.52;;;15.80;99.90;;;;;;5093010;28;20511;-80
2022/11/22 02:31:44;;;;;;;16.90;1.48;;;15.90;99.90;;;;;;5089563;28;20040;-78
2022/11/22 02:34:11;;;;;;;11.63;1.67;;;15.90;99.90;;;;;;5093118;28;20028;-78
2022/11/22 02:36:42;;;;;;;;;;;15.90;99.90;;;;;;5093326;28;20024;-79
2022/11/22 02:39:11;;;;;;;12.45;1.50;;;15.90;99.90;;;;;;5092973;28;19908;-79
2022/11/22 02:41:38;;;;;;;9.10;1.45;;;15.90;99.90;;;;;;5093028;28;20090;-78
2022/11/22 02:44:06;;;;;;;19.20;2.05;;;15.90;99.90;;;;;;5092802;28;20016;-78
2022/11/22 02:46:32;;;;;;;13.55;1.80;;;15.90;99.90;;;;;;5092646;28;20094;-78
2022/11/22 02:48:58;;;;;;;15.87;1.53;;;15.90;99.90;;;;;;5093025;28;20103;-79
2022/11/22 02:51:25;;;;;;;10.93;1.93;;;16.00;99.90;;;;;;5093158;28;20345;-79
2022/11/22 02:53:52;;;;;;;13.77;1.23;;;16.00;99.90;;;;;;5092881;28;20020;-80
2022/11/22 02:56:18;;;;;;;16.60;1.92;;;16.00;99.90;;;;;;5092943;28;20372;-79
2022/11/22 02:58:46;;;;;;;14.27;1.58;;;15.90;99.90;;;;;;5092555;28;20352;-80
2022/11/22 03:01:13;;;;;;;12.50;1.63;;;16.00;99.90;;;;;;5092526;28;20071;-79
2022/11/22 03:03:38;;;;;;;;;;;16.00;99.90;;;;;;5092958;28;20020;-79
2022/11/22 03:06:05;;;;;;;10.80;1.58;;;16.00;99.90;;;;;;5092775;28;19964;-79
2022/11/22 03:08:32;;;;;;;13.63;2.03;;;16.00;99.90;;;;;;5092748;28;20107;-79
2022/11/22 03:10:58;;;;;;;11.73;1.60;;;15.90;99.90;;;;;;5092755;28;20479;-80
2022/11/22 03:13:25;;;;;;;9.90;1.25;;;15.90;99.90;;;;;;5092134;28;20666;-80
2022/11/22 03:15:51;;;;;;;18.00;1.83;;;15.90;99.90;;;;;;5092344;28;20380;-80
2022/11/22 03:18:17;;;;;;;15.40;2.00;;;15.90;99.90;;;;;;5092311;28;20521;-79
2022/11/22 03:20:43;;;;;;;13.77;2.33;;;15.90;99.90;;;;;;5092651;28;20036;-79
2022/11/22 03:23:09;;;;;;;13.80;2.17;;;15.90;99.90;;;;;;5091961;28;20046;-78
2022/11/22 03:25:38;;;;;;;11.73;1.77;;;15.90;99.90;;;;;;5091736;28;20274;-78
2022/11/22 03:28:05;;;;;;;20.73;2.05;;;15.90;99.90;;;;;;5092131;28;20080;-80
2022/11/22 03:30:31;;;;;;;20.95;2.67;;;15.90;99.90;;;;;;5092052;28;20096;-79
2022/11/22 03:32:57;;;;;;;19.60;2.55;;;15.90;99.90;;;;;;5092133;28;20098;-80
2022/11/22 03:35:23;;;;;;;21.80;2.47;;;15.90;99.90;;;;;;5092123;28;20471;-79
2022/11/22 03:37:49;;;;;;;13.15;1.90;;;15.90;99.90;;;;;;5091833;28;20027;-80
2022/11/22 03:40:15;;;;;;;20.93;2.83;;;15.90;99.90;;;;;;5091884;28;20028;-80
2022/11/22 03:42:41;;;;;;;14.15;2.10;;;15.90;99.90;;;;;;5091905;28;20024;-80
2022/11/22 03:45:08;;;;;;;18.57;2.50;;;15.90;99.90;;;;;;5073230;28;20101;-79
2022/11/22 03:47:34;;;;;;;16.55;2.63;;;16.00;99.90;;;;;;5091865;28;20028;-80
2022/11/22 03:50:00;;;;;;;14.07;2.37;;;16.00;99.90;;;;;;5090098;28;20111;-79
2022/11/22 03:52:26;;;;;;;17.93;2.70;;;16.00;99.90;;;;;;5096608;28;20257;-78
2022/11/22 03:54:52;;;;;;;18.10;2.00;;;16.00;99.90;;;;;;5111001;28;20027;-79
2022/11/22 03:57:18;;;;;;;10.90;1.77;;;15.90;99.90;;;;;;5073218;28;20027;-78
2022/11/22 03:59:44;;;;;;;16.93;2.20;;;15.90;99.90;;;;;;5091614;28;20344;-78
2022/11/22 04:02:10;;;;;;;16.15;2.00;;;15.90;99.90;;;;;;5091469;28;20116;-79
2022/11/22 04:04:36;;;;;;;15.87;2.60;;;15.90;99.90;;;;;;5092093;28;20028;-78
2022/11/22 04:07:02;;;;;;;18.37;2.03;;;15.90;99.90;;;;;;5111384;28;20322;-79
2022/11/22 04:09:28;;;;;;;15.37;2.20;;;15.90;99.90;;;;;;5093667;28;20417;-79
2022/11/22 04:11:54;;;;;;;12.57;2.10;;;15.90;99.90;;;;;;5111337;28;20455;-78
2022/11/22 04:17:04;;;;;;;13.63;1.73;;;15.90;99.90;;;;;;5103195;28;20093;-75
2022/11/22 04:19:30;;;;;;;17.23;2.45;;;15.90;99.90;;;;;;5080168;28;20109;-76
2022/11/22 04:21:56;;;;;;;19.67;2.67;;;15.80;99.90;;;;;;5053029;28;20025;-74
2022/11/22 04:27:07;;;;;;;16.73;2.08;;;15.80;99.90;;;;;;5071739;28;20278;-78
2022/11/22 04:29:33;;;;;;;20.83;2.73;;;15.80;99.90;;;;;;5080701;28;20067;-73
2022/11/22 04:35:07;;;;;;;15.40;2.10;;;15.80;99.90;;;;;;5030079;28;20037;-76
2022/11/22 04:37:33;;;;;;;18.05;2.70;;;15.80;99.90;;;;;;5029676;28;20041;-77
2022/11/22 04:39:59;;;;;;;20.93;2.27;;;15.80;99.90;;;;;;5029442;28;20049;-79
2022/11/22 04:45:10;;;;;;;14.80;2.03;;;15.80;99.90;;;;;;5029476;28;20760;-78
2022/11/22 04:48:11;;;;;;;21.38;2.53;;;15.80;99.90;;;;;;5029683;28;20033;-78
2022/11/22 04:53:15;;;;;;;19.23;2.17;;;15.80;99.90;;;;;;5029807;28;20076;-78
2022/11/22 04:55:42;;;;;;;;;;;15.80;99.90;;;;;;5030249;28;20029;-78
2022/11/22 04:58:08;;;;;;;20.20;2.30;;;15.80;99.90;;;;;;5029630;28;20015;-78
2022/11/22 05:00:35;;;;;;;14.98;2.00;;;15.80;99.90;;;;;;5029811;28;20116;-78
2022/11/22 05:03:01;;;;;;;17.67;2.95;;;15.90;99.90;;;;;;5029389;28;20458;-78
2022/11/22 05:05:27;;;;;;;15.57;2.47;;;15.90;99.90;;;;;;5044350;28;20090;-79
2022/11/22 05:07:54;;;;;;;23.58;2.42;;;15.90;99.90;;;;;;5071471;28;20025;-77
2022/11/22 05:10:21;;;;;;;10.27;2.20;;;15.90;99.90;;;;;;5071690;28;20097;-77
2022/11/22 05:12:47;;;;;;;13.45;3.33;;;15.90;99.90;;;;;;5071105;28;20056;-79
2022/11/22 05:15:13;;;;;;;15.20;2.57;;;15.90;99.90;;;;;;5071826;28;20417;-79
2022/11/22 05:17:39;;;;;;;14.50;2.63;;;15.90;99.90;;;;;;5072249;28;20131;-79
2022/11/22 05:20:09;;;;;;;23.50;2.63;;;16.00;99.90;;;;;;5071983;28;20286;-79
2022/11/22 05:25:20;;;;;;;25.35;3.28;;;15.90;99.90;;;;;;5076247;28;20124;-78
2022/11/22 05:27:46;;;;;;;17.67;2.28;;;15.90;99.90;;;;;;5075627;28;20025;-75
2022/11/22 05:30:12;;;;;;;26.23;3.27;;;15.90;99.90;;;;;;5075607;28;20020;-78
2022/11/22 05:32:38;;;;;;;21.42;2.70;;;15.90;99.90;;;;;;5058071;28;20262;-77
2022/11/22 05:35:05;;;;;;;21.20;2.90;;;15.90;99.90;;;;;;5057640;28;20028;-77
2022/11/22 05:37:31;;;;;;;17.88;3.03;;;16.00;99.90;;;;;;5057558;28;20029;-76
2022/11/22 05:39:57;;;;;;;25.40;2.73;;;16.00;99.90;;;;;;5075618;28;20394;-76
2022/11/22 05:42:23;;;;;;;27.83;3.93;;;16.00;99.90;;;;;;5076084;28;20293;-76
2022/11/22 05:44:49;;;;;;;34.47;4.17;;;16.00;99.90;;;;;;5076154;28;20024;-75
2022/11/22 05:47:15;;;;;;;20.88;3.33;;;16.00;99.90;;;;;;5095676;28;20020;-76
2022/11/22 05:49:44;;;;;;;21.27;3.10;;;16.00;99.90;;;;;;5095800;28;20032;-76
2022/11/22 05:52:11;;;;;;;24.13;2.95;;;16.10;99.90;;;;;;5095648;28;20085;-76
2022/11/22 05:54:38;;;;;;;18.23;2.58;;;16.10;99.90;;;;;;5095370;28;20135;-77
2022/11/22 05:57:04;;;;;;;30.75;3.13;;;16.10;99.90;;;;;;5094462;28;20028;-77
2022/11/22 05:59:30;;;;;;;21.33;3.40;;;16.20;99.90;;;;;;5094388;28;20104;-78
2022/11/22 06:01:56;;;;;;;24.17;2.70;;;16.40;99.90;;;;;;5094312;28;20335;-77
2022/11/22 06:04:22;;;;;;;26.90;3.47;;;16.40;99.90;;;;;;5094851;28;20364;-78
2022/11/22 06:06:48;;;;;;;31.03;3.63;;;16.50;99.90;;;;;;5094959;28;20718;-77
2022/11/22 06:09:14;;;;;;;31.30;4.07;;;16.40;99.90;;;;;;5095387;28;20270;-77
2022/11/22 06:11:40;;;;;;;27.17;3.35;;;16.30;99.90;;;;;;5094222;28;20496;-77
2022/11/22 06:14:08;;;;;;;25.08;3.33;;;16.30;99.90;;;;;;5076054;28;20498;-77
2022/11/22 06:16:34;;;;;;;20.63;3.10;;;16.30;99.90;;;;;;5095085;28;20050;-77
2022/11/22 06:19:00;;;;;;;25.97;3.57;;;16.20;99.90;;;;;;5094745;28;20028;-74
2022/11/22 06:21:27;;;;;;;29.95;3.78;;;16.20;99.90;;;;;;5095185;28;20591;-80
2022/11/22 06:23:54;;;;;;;29.60;3.03;;;16.20;99.90;;;;;;5076380;28;20024;-75
2022/11/22 06:26:21;;;;;;;;;;;16.20;99.90;;;;;;5095487;28;20027;-75
2022/11/22 06:28:51;;;;;;;22.85;2.95;;;16.20;99.90;;;;;;5076004;28;19904;-75
2022/11/22 06:31:20;;;;;;;34.03;3.65;;;16.10;99.90;;;;;;5094178;28;20024;-76
2022/11/22 06:33:46;;;;;;;16.88;2.85;;;16.20;99.90;;;;;;5093251;28;20034;-76
2022/11/22 06:36:15;;;;;;;20.20;3.38;;;16.20;99.90;;;;;;5094691;28;20074;-78
2022/11/22 06:38:42;;;;;;;33.15;4.47;;;16.20;99.90;;;;;;5093619;28;20027;-73
2022/11/22 06:41:09;;;;;;;;;;;16.20;99.90;;;;;;5074175;28;20500;-75
2022/11/22 06:43:36;;;;;;;39.15;3.55;;;16.30;99.90;;;;;;5073340;28;19904;-75
2022/11/22 06:46:03;;;;;;;29.80;3.97;;;16.40;99.90;;;;;;5072839;28;20060;-75
2022/11/22 06:48:30;;;;;;;28.48;3.58;;;16.40;99.90;;;;;;5073613;28;20078;-77
2022/11/22 06:51:01;;;;;;;29.20;3.90;;;16.40;99.90;;;;;;5073822;28;20116;-76
2022/11/22 06:53:32;;;;;;;29.35;3.20;;;16.40;99.90;;;;;;5073281;28;20096;-76
2022/11/22 06:56:10;;;;;;;32.45;3.67;;;16.40;99.90;;;;;;5073527;28;20120;-77
2022/11/22 06:58:37;;;;;;;30.77;3.70;;;16.50;99.90;;;;;;5073016;28;20031;-76
2022/11/22 07:01:08;;;;;;;30.17;3.75;;;16.50;99.90;;;;;;5072816;28;20036;-76
2022/11/22 07:03:36;;;;;;;26.48;3.38;;;16.50;99.90;;;;;;5072975;28;20088;-75
2022/11/22 07:06:03;;;;;;;36.10;4.13;;;16.60;99.90;;;;;;5072956;28;20333;-75
2022/11/22 07:08:30;;;;;;;36.45;3.90;;;16.60;99.90;;;;;;5073579;28;20457;-77
2022/11/22 07:11:05;;;;;;;32.47;4.75;;;16.70;99.90;;;;;;5072952;28;20537;-77
2022/11/22 07:13:31;;;;;;;32.28;4.07;;;16.80;99.90;;;;;;5072747;28;20514;-77
2022/11/22 07:15:59;;;;;;;28.45;3.38;;;16.90;99.90;;;;;;5073289;28;20036;-77
2022/11/22 07:18:26;;;;;;;24.98;3.05;;;17.00;99.90;;;;;;5073172;28;20166;-76
2022/11/22 07:20:52;;;;;;;;;;;17.00;99.90;;;;;;5073983;28;20036;-77
2022/11/22 07:23:18;;;;;;;34.20;3.30;;;17.00;99.90;;;;;;5055250;28;19911;-76
2022/11/22 07:25:46;;;;;;;25.08;3.80;;;16.90;99.90;;;;;;5073135;28;20026;-76
2022/11/22 07:28:13;;;;;;;37.28;3.92;;;16.80;99.90;;;;;;5073510;28;20032;-75
2022/11/22 07:30:40;;;;;;;37.58;3.90;;;16.80;99.90;;;;;;5055183;28;20052;-77
2022/11/22 07:33:06;;;;;;;36.35;3.45;;;16.80;99.90;;;;;;5072757;28;20480;-76
2022/11/22 07:35:32;;;;;;;30.10;4.80;;;16.70;99.90;;;;;;5072792;28;20024;-76
2022/11/22 07:37:58;;;;;;;41.42;4.40;;;16.70;99.90;;;;;;5073379;28;20504;-77
2022/11/22 07:40:24;;;;;;;28.30;4.15;;;16.70;99.90;;;;;;5072894;28;20036;-76
2022/11/22 07:42:50;;;;;;;20.98;3.10;;;16.70;99.90;;;;;;5073439;28;20064;-77
2022/11/22 07:45:16;;;;;;;30.13;3.88;;;16.70;99.90;;;;;;5072392;28;20059;-76
2022/11/22 07:47:42;;;;;;;33.03;3.78;;;16.70;99.90;;;;;;5072604;28;20025;-76
2022/11/22 07:50:09;;;;;;;46.30;4.50;;;16.70;99.90;;;;;;5073275;28;20025;-77
2022/11/22 07:52:54;;;;;;;26.45;3.42;;;16.70;99.90;;;;;;5073081;28;20518;-76
2022/11/22 07:55:20;;;;;;;41.58;4.55;;;16.70;99.90;;;;;;5073041;28;20030;-76
2022/11/22 07:57:46;;;;;;;38.97;4.43;;;16.70;99.90;;;;;;5072640;28;20024;-76
2022/11/22 08:00:13;;;;;;;28.13;3.87;;;16.70;99.90;;;;;;5073027;28;20673;-76
2022/11/22 08:02:39;;;;;;;33.90;4.35;;;16.70;99.90;;;;;;5072490;28;20262;-75
2022/11/22 08:05:06;;;;;;;42.23;7.87;;;16.70;99.90;;;;;;5086455;28;20024;-77
2022/11/22 08:07:32;;;;;;;34.45;6.93;;;16.70;99.90;;;;;;5064275;28;20282;-77
2022/11/22 08:09:59;;;;;;;37.60;4.65;;;16.70;99.90;;;;;;5099510;28;20035;-76
2022/11/22 08:12:25;;;;;;;36.83;5.65;;;16.70;99.90;;;;;;5098558;28;20408;-76
2022/11/22 08:14:51;;;;;;;78.28;25.65;;;16.70;99.90;;;;;;5093125;28;20034;-76
2022/11/22 08:17:17;;;;;;;59.45;22.85;;;16.70;99.90;;;;;;5093155;28;20055;-75
2022/11/22 08:19:43;;;;;;;58.13;18.25;;;16.70;99.90;;;;;;5092491;28;20161;-76
2022/11/22 08:22:09;;;;;;;56.53;13.52;;;16.70;99.90;;;;;;5092441;28;20085;-76
2022/11/22 08:24:35;;;;;;;53.60;16.23;;;16.80;99.90;;;;;;5092871;28;20027;-74
2022/11/22 08:27:02;;;;;;;49.70;12.07;;;16.70;99.90;;;;;;5092717;28;20024;-76
2022/11/22 08:29:28;;;;;;;43.08;11.38;;;16.80;99.90;;;;;;5092391;28;20028;-76
2022/11/22 08:31:54;;;;;;;61.15;20.98;;;16.80;99.90;;;;;;5092379;28;20063;-75
2022/11/22 08:34:20;;;;;;;89.88;32.60;;;16.80;99.90;;;;;;5092735;28;20047;-75
2022/11/22 08:36:46;;;;;;;67.47;22.93;;;16.80;99.90;;;;;;5092477;28;20103;-76
2022/11/22 08:39:12;;;;;;;50.30;11.17;;;16.80;99.90;;;;;;5092233;28;20355;-77
2022/11/22 08:41:38;;;;;;;50.85;16.27;;;16.90;99.90;;;;;;5092488;28;20110;-79
2022/11/22 08:44:04;;;;;;;68.15;23.48;;;16.90;99.90;;;;;;5092436;28;20056;-77
2022/11/22 08:46:31;;;;;;;39.33;11.02;;;16.90;99.90;;;;;;5092029;28;20032;-78
2022/11/22 08:48:57;;;;;;;55.70;15.95;;;16.90;99.90;;;;;;5092563;28;20103;-79
2022/11/22 08:51:23;;;;;;;18.53;3.07;;;16.90;99.90;;;;;;5091728;28;20112;-79
2022/11/22 08:53:49;;;;;;;13.93;3.10;;;16.60;99.90;;;;;;5072908;28;20413;-79
2022/11/22 08:56:15;;;;;;;23.57;3.00;;;16.20;99.90;;;;;;5073860;28;20123;-78
2022/11/22 08:58:42;;;;;;;17.27;2.80;;;16.00;99.90;;;;;;5077072;28;20586;-79
2022/11/22 09:01:14;;;;;;;20.13;3.40;;;15.80;99.90;;;;;;5095398;28;20124;-78
2022/11/22 09:03:41;;;;;;;19.20;2.38;;;15.70;99.90;;;;;;5095543;28;20448;-78
2022/11/22 09:06:09;;;;;;;23.33;2.95;;;15.60;99.90;;;;;;5077003;28;20028;-80
2022/11/22 09:08:37;;;;;;;12.70;2.03;;;15.50;99.90;;;;;;5095241;28;20031;-78
2022/11/22 09:11:19;;;;;;;17.15;2.47;;;15.50;99.90;;;;;;5095558;28;20052;-79
2022/11/22 09:13:46;;;;;;;12.68;1.88;;;15.60;99.90;;;;;;5095089;28;20032;-79
2022/11/22 09:16:15;;;;;;;16.42;1.85;;;15.70;99.90;;;;;;5095035;28;20024;-78
2022/11/22 09:18:41;;;;;;;17.83;3.17;;;15.70;99.90;;;;;;5076942;28;20130;-79
2022/11/22 09:21:10;;;;;;;16.95;1.90;;;15.70;99.90;;;;;;5096159;28;20063;-79
2022/11/22 09:23:37;;;;;;;18.63;2.55;;;15.70;99.90;;;;;;5078220;28;20020;-78
2022/11/22 09:26:08;;;;;;;12.80;1.40;;;15.70;99.90;;;;;;5096171;28;20032;-78
2022/11/22 09:28:34;;;;;;;13.63;2.30;;;15.80;99.90;;;;;;5096270;28;20028;-79
2022/11/22 09:31:03;;;;;;;15.00;2.40;;;15.80;99.90;;;;;;5095986;28;20070;-79
2022/11/22 09:33:30;;;;;;;16.95;1.98;;;15.80;99.90;;;;;;5095876;28;20070;-79
2022/11/22 09:36:04;;;;;;;12.82;2.30;;;15.90;99.90;;;;;;5095762;28;20033;-79
2022/11/22 09:38:30;;;;;;;15.13;2.80;;;16.00;99.90;;;;;;5095988;28;20103;-81
2022/11/22 09:40:57;;;;;;;;;;;16.00;99.90;;;;;;5096074;28;20042;-81
2022/11/22 09:43:31;;;;;;;10.43;2.20;;;16.10;99.90;;;;;;5095596;28;19908;-79
2022/11/22 09:46:20;;;;;;;17.30;2.20;;;16.10;99.90;;;;;;5077170;28;20028;-79
2022/11/22 09:49:10;;;;;;;12.18;2.65;;;16.20;99.90;;;;;;5082085;28;20040;-79
2022/11/22 09:51:43;;;;;;;18.52;2.65;;;16.20;99.90;;;;;;5095398;28;20055;-80
2022/11/22 09:54:23;;;;;;;18.60;6.00;;;16.30;99.90;;;;;;5095736;28;20032;-78
2022/11/22 09:56:53;;;;;;;22.80;4.70;;;16.30;99.90;;;;;;5095405;28;20061;-79
2022/11/22 09:59:43;;;;;;;14.23;2.35;;;16.50;99.90;;;;;;5095903;28;20325;-79
2022/11/22 10:02:36;;;;;;;15.57;2.45;;;16.50;99.90;;;;;;5095341;28;20384;-79
2022/11/22 10:05:23;;;;;;;17.23;2.97;;;16.60;99.90;;;;;;5082185;28;20036;-79
2022/11/22 10:08:23;;;;;;;14.30;2.22;;;16.70;99.90;;;;;;5094500;28;20488;-78
2022/11/22 10:10:52;;;;;;;13.18;2.08;;;16.60;99.90;;;;;;5076862;28;20465;-79
2022/11/22 10:13:27;;;;;;;13.82;1.88;;;16.50;99.90;;;;;;5094619;28;20105;-79
2022/11/22 10:16:30;;;;;;;18.40;2.30;;;15.90;99.90;;;;;;5094993;28;20028;-78
2022/11/22 10:19:09;;;;;;;17.80;3.22;;;15.50;99.90;;;;;;5077258;28;20036;-80
2022/11/22 10:21:36;;;;;;;16.15;2.40;;;15.30;99.90;;;;;;5094647;28;20117;-79
2022/11/22 10:24:02;;;;;;;22.02;2.90;;;15.20;99.90;;;;;;5094644;28;20024;-80
2022/11/22 10:26:34;;;;;;;16.73;2.50;;;15.10;99.90;;;;;;5094689;28;20035;-80
2022/11/22 10:29:09;;;;;;;16.77;2.28;;;15.10;99.90;;;;;;5095137;28;20027;-81
2022/11/22 10:31:38;;;;;;;15.65;2.33;;;15.30;99.90;;;;;;5076179;28;20043;-79
2022/11/22 10:34:39;;;;;;;22.98;2.45;;;15.30;99.90;;;;;;5094894;28;20086;-79
2022/11/22 10:37:49;;;;;;;20.13;2.53;;;15.40;99.90;;;;;;5093535;28;20024;-78
2022/11/22 10:40:25;;;;;;;15.13;1.85;;;15.40;99.90;;;;;;5016805;28;20135;-80
2022/11/22 10:43:16;;;;;;;14.88;2.58;;;15.50;99.90;;;;;;5012272;28;20100;-80
2022/11/22 10:45:57;;;;;;;21.58;2.92;;;15.30;99.90;;;;;;5018079;28;20121;-79
2022/11/22 10:48:27;;;;;;;29.75;3.63;;;15.10;99.90;;;;;;5026246;28;20030;-78
2022/11/22 10:51:14;;;;;;;20.52;3.22;;;15.10;99.90;;;;;;5011911;28;20065;-79
2022/11/22 10:53:58;;;;;;;27.05;2.90;;;15.10;99.90;;;;;;5011597;28;20040;-80
2022/11/22 10:56:36;;;;;;;28.42;3.50;;;15.10;99.90;;;;;;5011735;28;20109;-79
2022/11/22 10:59:08;;;;;;;22.80;3.78;;;15.30;99.90;;;;;;5012178;28;20069;-80
2022/11/22 11:02:15;;;;;;;25.45;3.80;;;15.30;99.90;;;;;;5011369;28;20092;-81
2022/11/22 11:04:43;;;;;;;23.90;3.60;;;15.50;99.90;;;;;;5009106;28;20038;-81
2022/11/22 11:07:20;;;;;;;21.02;3.90;;;15.70;99.90;;;;;;5011822;28;20026;-81
2022/11/22 11:09:53;;;;;;;29.17;4.18;;;16.00;99.90;;;;;;5013733;28;20121;-81
2022/11/22 11:12:44;;;;;;;22.10;3.67;;;16.30;99.90;;;;;;5072887;28;20056;-80
2022/11/22 11:15:22;;;;;;;26.60;4.03;;;16.50;99.90;;;;;;5054821;28;20119;-80
2022/11/22 11:18:03;;;;;;;21.15;3.33;;;16.50;99.90;;;;;;5054486;28;20028;-79
2022/11/22 11:20:37;;;;;;;19.05;3.15;;;16.60;99.90;;;;;;5054347;28;20043;-79
2022/11/22 11:23:03;;;;;;;16.58;2.78;;;16.80;99.90;;;;;;5073096;28;20029;-80
2022/11/22 11:25:41;;;;;;;14.70;2.75;;;16.90;99.90;;;;;;5073221;28;20082;-79
2022/11/22 11:28:11;;;;;;;15.52;3.22;;;16.90;99.90;;;;;;5077254;28;20016;-78
2022/11/22 11:30:46;;;;;;;17.05;2.83;;;17.00;99.90;;;;;;5073278;28;20028;-78
2022/11/22 11:33:19;;;;;;;28.80;3.80;;;16.90;99.90;;;;;;5077512;28;20055;-75
2022/11/22 11:35:55;;;;;;;21.48;2.83;;;16.90;99.90;;;;;;5091395;28;20020;-80
2022/11/22 11:38:43;;;;;;;15.48;2.60;;;17.10;99.90;;;;;;5093181;28;20028;-79
2022/11/22 11:41:18;;;;;;;20.95;2.47;;;17.20;99.90;;;;;;5093387;28;20040;-81
2022/11/22 11:43:45;;;;;;;18.15;2.78;;;17.20;99.90;;;;;;5074778;28;20338;-78
2022/11/22 11:46:17;;;;;;;18.25;2.65;;;17.20;99.90;;;;;;5092965;28;20135;-79
2022/11/22 11:48:44;;;;;;;11.57;2.70;;;17.30;99.90;;;;;;5092827;28;20052;-80
2022/11/22 11:51:17;;;;;;;15.45;2.47;;;17.50;99.90;;;;;;5093106;28;20039;-80
2022/11/22 11:54:04;;;;;;;19.52;2.78;;;17.50;99.90;;;;;;5092793;28;20472;-79
2022/11/22 11:57:00;;;;;;;13.27;2.30;;;17.60;99.90;;;;;;5074553;28;20056;-81
2022/11/22 11:59:38;;;;;;;17.55;2.80;;;17.40;99.90;;;;;;5087029;28;20105;-79
2022/11/22 12:02:18;;;;;;;17.27;2.72;;;17.40;99.90;;;;;;5074030;28;20027;-81
2022/11/22 12:05:04;;;;;;;18.80;3.10;;;17.30;99.90;;;;;;5073467;28;20024;-79
2022/11/22 12:07:33;;;;;;;18.33;2.65;;;17.50;99.90;;;;;;5092383;28;20035;-80
2022/11/22 12:09:59;;;;;;;23.80;3.42;;;17.60;99.90;;;;;;5073620;28;20138;-80
2022/11/22 12:12:38;;;;;;;17.92;2.90;;;17.60;99.90;;;;;;5073311;28;20075;-78
2022/11/22 12:15:25;;;;;;;16.35;2.70;;;17.40;99.90;;;;;;5091267;28;20024;-81
2022/11/22 12:18:03;;;;;;;21.90;2.38;;;17.20;99.90;;;;;;5072759;28;20016;-79
2022/11/22 12:20:45;;;;;;;17.77;2.75;;;17.10;99.90;;;;;;5091950;28;20039;-79
2022/11/22 12:23:35;;;;;;;22.77;3.33;;;17.10;99.90;;;;;;5092135;28;20477;-80
2022/11/22 12:26:01;;;;;;;21.42;3.10;;;17.10;99.90;;;;;;5073855;28;20472;-79
2022/11/22 12:28:28;;;;;;;16.65;6.30;;;17.00;99.90;;;;;;5092435;28;20028;-79
2022/11/22 12:31:06;;;;;;;20.00;3.00;;;16.90;99.90;;;;;;5072823;28;20047;-80
2022/11/22 12:33:41;;;;;;;15.48;2.40;;;16.90;99.90;;;;;;5091658;28;20142;-80
2022/11/22 12:36:19;;;;;;;17.33;2.25;;;16.70;99.90;;;;;;5092098;28;20020;-80
2022/11/22 12:38:48;;;;;;;12.82;2.10;;;16.60;99.90;;;;;;5092059;28;20436;-79
2022/11/22 12:41:17;;;;;;;16.13;2.42;;;16.60;99.90;;;;;;5091810;28;20032;-80
2022/11/22 12:43:50;;;;;;;19.60;2.28;;;16.40;99.90;;;;;;5100491;28;20028;-78
2022/11/22 12:46:20;;;;;;;13.70;2.17;;;16.40;99.90;;;;;;5093712;28;20031;-78
2022/11/22 12:48:56;;;;;;;23.30;2.30;;;16.40;99.90;;;;;;5105901;28;20023;-80
2022/11/22 12:51:41;;;;;;;18.02;2.30;;;16.40;99.90;;;;;;5091756;28;20460;-80
2022/11/22 12:54:15;;;;;;;16.65;2.28;;;16.30;99.90;;;;;;5092102;28;20417;-80
2022/11/22 12:56:47;;;;;;;21.58;3.03;;;16.20;99.90;;;;;;5091716;28;20024;-80
2022/11/22 12:59:36;;;;;;;20.83;2.50;;;16.20;99.90;;;;;;5091676;28;20032;-80
2022/11/22 13:02:09;;;;;;;15.25;2.63;;;16.20;99.90;;;;;;5091337;28;20028;-81
2022/11/22 13:04:44;;;;;;;23.42;3.78;;;16.30;99.90;;;;;;5079558;28;20111;-80
2022/11/22 13:07:21;;;;;;;25.63;3.20;;;16.40;99.90;;;;;;5064578;28;20082;-79
2022/11/22 13:10:01;;;;;;;17.80;3.22;;;16.40;99.90;;;;;;5071872;28;20021;-78